createdAt,value
2022-12-25T00:00:46.744Z,8.21
2022-12-25T00:01:46.727Z,8.20
2022-12-25T00:02:46.842Z,8.20
2022-12-25T00:03:46.769Z,8.20
2022-12-25T00:04:46.675Z,8.18
2022-12-25T00:05:46.673Z,8.17
2022-12-25T00:06:46.673Z,8.18
2022-12-25T00:07:46.646Z,8.20
2022-12-25T00:08:46.637Z,8.18
2022-12-25T00:09:46.636Z,8.17
2022-12-25T00:10:46.613Z,8.18
2022-12-25T00:11:46.607Z,8.16
2022-12-25T00:12:46.593Z,8.17
2022-12-25T00:13:46.573Z,8.17
2022-12-25T00:14:46.579Z,8.17
2022-12-25T00:15:46.596Z,8.16
2022-12-25T00:16:46.646Z,8.16
2022-12-25T00:17:46.586Z,8.16
2022-12-25T00:18:46.526Z,8.16
2022-12-25T00:19:46.509Z,8.17
2022-12-25T00:20:46.494Z,8.16
2022-12-25T00:21:46.553Z,8.16
2022-12-25T00:22:46.489Z,8.16
2022-12-25T00:23:46.481Z,8.18
2022-12-25T00:24:46.463Z,8.16
2022-12-25T00:25:46.445Z,8.14
2022-12-25T00:26:46.447Z,8.16
2022-12-25T00:27:47.070Z,8.17
2022-12-25T00:28:46.443Z,8.17
2022-12-25T00:29:46.411Z,8.20
2022-12-25T00:30:46.464Z,8.20
2022-12-25T00:31:46.483Z,8.18
2022-12-25T00:32:46.383Z,8.20
2022-12-25T00:33:46.390Z,8.20
2022-12-25T00:34:46.375Z,8.21
2022-12-25T00:35:46.333Z,8.21
2022-12-25T00:36:46.363Z,8.24
2022-12-25T00:37:46.330Z,8.23
2022-12-25T00:38:46.316Z,8.24
2022-12-25T00:39:46.290Z,8.23
2022-12-25T00:40:46.312Z,8.24
2022-12-25T00:41:46.341Z,8.26
2022-12-25T00:42:46.261Z,8.28
2022-12-25T00:43:46.459Z,8.27
2022-12-25T00:44:46.269Z,8.31
2022-12-25T00:45:46.292Z,8.31
2022-12-25T00:46:46.352Z,8.31
2022-12-25T00:47:46.213Z,8.34
2022-12-25T00:48:46.190Z,8.34
2022-12-25T00:49:46.183Z,8.35
2022-12-25T00:50:46.175Z,8.36
2022-12-25T00:51:46.181Z,8.38
2022-12-25T00:52:46.179Z,8.38
2022-12-25T00:53:46.148Z,8.41
2022-12-25T00:54:46.132Z,8.44
2022-12-25T00:55:46.186Z,8.41
2022-12-25T00:56:46.111Z,8.44
2022-12-25T00:57:46.124Z,8.45
2022-12-25T00:58:46.114Z,8.46
2022-12-25T00:59:46.075Z,8.50
2022-12-25T01:00:46.098Z,8.52
2022-12-25T01:01:46.187Z,8.53
2022-12-25T01:02:46.105Z,8.53
2022-12-25T01:03:46.020Z,8.56
2022-12-25T01:04:46.042Z,8.57
2022-12-25T01:05:46.021Z,8.61
2022-12-25T01:06:46.003Z,8.59
2022-12-25T01:07:46.065Z,8.61
2022-12-25T01:08:45.978Z,8.63
2022-12-25T01:09:46.000Z,8.63
2022-12-25T01:10:45.959Z,8.68
2022-12-25T01:11:45.964Z,8.69
2022-12-25T01:12:45.936Z,8.69
2022-12-25T01:13:45.916Z,8.72
2022-12-25T01:14:45.969Z,8.71
2022-12-25T01:15:45.899Z,8.75
2022-12-25T01:16:45.916Z,8.74
2022-12-25T01:17:45.875Z,8.75
2022-12-25T01:18:45.857Z,8.77
2022-12-25T01:19:45.870Z,8.75
2022-12-25T01:20:46.117Z,8.78
2022-12-25T01:21:45.893Z,8.78
2022-12-25T01:22:45.837Z,8.79
2022-12-25T01:23:45.817Z,8.81
2022-12-25T01:24:45.797Z,8.82
2022-12-25T01:25:45.809Z,8.79
2022-12-25T01:26:45.827Z,8.82
2022-12-25T01:27:45.806Z,8.84
2022-12-25T01:28:45.775Z,8.82
2022-12-25T01:29:45.825Z,8.86
2022-12-25T01:30:45.736Z,8.86
2022-12-25T01:31:45.807Z,8.86
2022-12-25T01:32:45.725Z,8.87
2022-12-25T01:33:45.743Z,8.89
2022-12-25T01:34:49.316Z,8.86
2022-12-25T01:35:46.695Z,8.90
2022-12-25T01:36:45.689Z,8.87
2022-12-25T01:37:45.669Z,8.89
2022-12-25T01:38:45.719Z,8.90
2022-12-25T01:39:45.651Z,8.90
2022-12-25T01:40:45.629Z,8.93
2022-12-25T01:41:45.663Z,8.90
2022-12-25T01:42:45.605Z,8.92
2022-12-25T01:43:45.596Z,8.93
2022-12-25T01:44:45.610Z,8.90
2022-12-25T01:45:45.635Z,8.93
2022-12-25T01:46:45.595Z,8.90
2022-12-25T01:47:45.559Z,8.96
2022-12-25T01:48:45.544Z,8.93
2022-12-25T01:49:45.544Z,8.96
2022-12-25T01:50:45.514Z,8.95
2022-12-25T01:51:45.522Z,8.96
2022-12-25T01:52:45.506Z,8.95
2022-12-25T01:53:45.487Z,8.96
2022-12-25T01:54:45.486Z,8.95
2022-12-25T01:55:45.483Z,8.97
2022-12-25T01:56:45.454Z,8.97
2022-12-25T01:57:45.509Z,8.97
2022-12-25T01:58:45.434Z,8.96
2022-12-25T01:59:45.453Z,8.99
2022-12-25T02:00:45.443Z,8.97
2022-12-25T02:01:45.515Z,9.00
2022-12-25T02:02:45.552Z,8.99
2022-12-25T02:03:45.383Z,8.99
2022-12-25T02:04:45.370Z,9.00
2022-12-25T02:05:45.387Z,9.02
2022-12-25T02:06:45.343Z,8.99
2022-12-25T02:07:45.353Z,9.02
2022-12-25T02:08:45.326Z,9.02
2022-12-25T02:09:45.310Z,9.00
2022-12-25T02:10:45.301Z,9.02
2022-12-25T02:11:45.300Z,9.02
2022-12-25T02:12:45.321Z,9.00
2022-12-25T02:13:45.273Z,9.02
2022-12-25T02:14:45.264Z,9.02
2022-12-25T02:15:45.267Z,9.00
2022-12-25T02:16:57.969Z,9.00
2022-12-25T02:17:46.231Z,9.05
2022-12-25T02:18:45.228Z,9.05
2022-12-25T02:19:45.233Z,9.02
2022-12-25T02:20:45.230Z,9.02
2022-12-25T02:21:45.184Z,9.02
2022-12-25T02:22:45.233Z,9.02
2022-12-25T02:23:45.177Z,9.03
2022-12-25T02:24:45.157Z,9.03
2022-12-25T02:25:45.160Z,9.05
2022-12-25T02:26:45.126Z,9.02
2022-12-25T02:27:45.122Z,9.05
2022-12-25T02:28:46.069Z,9.05
2022-12-25T02:29:45.102Z,9.08
2022-12-25T02:30:45.104Z,9.08
2022-12-25T02:31:45.122Z,9.05
2022-12-25T02:32:45.060Z,9.08
2022-12-25T02:33:45.061Z,9.11
2022-12-25T02:34:45.058Z,9.08
2022-12-25T02:35:45.035Z,9.09
2022-12-25T02:36:45.033Z,9.11
2022-12-25T02:37:45.059Z,9.11
2022-12-25T02:38:45.000Z,9.08
2022-12-25T02:39:45.020Z,9.11
2022-12-25T02:40:44.996Z,9.11
2022-12-25T02:41:44.980Z,9.08
2022-12-25T02:42:44.990Z,9.11
2022-12-25T02:43:44.970Z,9.12
2022-12-25T02:44:44.940Z,9.12
2022-12-25T02:45:45.006Z,9.11
2022-12-25T02:46:44.935Z,9.13
2022-12-25T02:47:44.937Z,9.12
2022-12-25T02:48:44.925Z,9.09
2022-12-25T02:49:44.890Z,9.13
2022-12-25T02:50:44.888Z,9.13
2022-12-25T02:51:44.875Z,9.12
2022-12-25T02:52:44.869Z,9.13
2022-12-25T02:53:44.849Z,9.15
2022-12-25T02:54:44.841Z,9.12
2022-12-25T02:55:44.823Z,9.13
2022-12-25T02:56:44.821Z,9.15
2022-12-25T02:57:44.822Z,9.12
2022-12-25T02:58:44.793Z,9.15
2022-12-25T02:59:44.790Z,9.15
2022-12-25T03:00:44.768Z,9.16
2022-12-25T03:01:44.873Z,9.18
2022-12-25T03:02:44.738Z,9.16
2022-12-25T03:03:44.831Z,9.18
2022-12-25T03:04:44.722Z,9.16
2022-12-25T03:05:44.722Z,9.19
2022-12-25T03:06:44.712Z,9.21
2022-12-25T03:07:44.690Z,9.19
2022-12-25T03:08:44.737Z,9.19
2022-12-25T03:09:44.691Z,9.21
2022-12-25T03:10:44.677Z,9.21
2022-12-25T03:11:44.654Z,9.22
2022-12-25T03:12:44.640Z,9.22
2022-12-25T03:13:44.626Z,9.22
2022-12-25T03:14:44.611Z,9.22
2022-12-25T03:15:44.604Z,9.24
2022-12-25T03:16:44.690Z,9.26
2022-12-25T03:17:44.579Z,9.26
2022-12-25T03:18:44.603Z,9.26
2022-12-25T03:19:44.583Z,9.26
2022-12-25T03:20:44.567Z,9.27
2022-12-25T03:21:44.538Z,9.30
2022-12-25T03:22:44.526Z,9.29
2022-12-25T03:23:44.530Z,9.30
2022-12-25T03:24:44.526Z,9.30
2022-12-25T03:25:44.488Z,9.30
2022-12-25T03:26:44.477Z,9.31
2022-12-25T03:27:44.471Z,9.34
2022-12-25T03:28:44.469Z,9.34
2022-12-25T03:29:44.462Z,9.37
2022-12-25T03:30:44.455Z,9.36
2022-12-25T03:31:44.431Z,9.36
2022-12-25T03:32:44.452Z,9.39
2022-12-25T03:33:45.682Z,9.37
2022-12-25T03:34:44.411Z,9.36
2022-12-25T03:35:44.423Z,9.40
2022-12-25T03:36:44.396Z,9.39
2022-12-25T03:37:44.370Z,9.42
2022-12-25T03:38:44.381Z,9.40
2022-12-25T03:39:44.347Z,9.44
2022-12-25T03:40:44.332Z,9.42
2022-12-25T03:41:44.324Z,9.42
2022-12-25T03:42:44.320Z,9.44
2022-12-25T03:43:44.316Z,9.44
2022-12-25T03:44:44.306Z,9.45
2022-12-25T03:45:44.303Z,9.47
2022-12-25T03:46:44.277Z,9.45
2022-12-25T03:47:44.267Z,9.45
2022-12-25T03:48:44.266Z,9.47
2022-12-25T03:49:44.257Z,9.49
2022-12-25T03:50:44.235Z,9.47
2022-12-25T03:51:44.216Z,9.51
2022-12-25T03:52:44.209Z,9.49
2022-12-25T03:53:44.239Z,9.49
2022-12-25T03:54:44.208Z,9.51
2022-12-25T03:55:44.202Z,9.54
2022-12-25T03:56:44.181Z,9.55
2022-12-25T03:57:44.174Z,9.54
2022-12-25T03:58:44.177Z,9.54
2022-12-25T03:59:44.135Z,9.54
2022-12-25T04:00:44.130Z,9.56
2022-12-25T04:01:44.248Z,9.55
2022-12-25T04:02:44.231Z,9.55
2022-12-25T04:03:44.184Z,9.55
2022-12-25T04:04:44.092Z,9.58
2022-12-25T04:05:44.075Z,9.58
2022-12-25T04:06:44.057Z,9.58
2022-12-25T04:07:44.054Z,9.58
2022-12-25T04:08:44.017Z,9.62
2022-12-25T04:09:44.024Z,9.63
2022-12-25T04:10:43.995Z,9.59
2022-12-25T04:11:43.996Z,9.64
2022-12-25T04:12:43.976Z,9.63
2022-12-25T04:13:43.985Z,9.63
2022-12-25T04:14:43.974Z,9.64
2022-12-25T04:15:43.972Z,9.63
2022-12-25T04:16:43.969Z,9.66
2022-12-25T04:17:43.975Z,9.66
2022-12-25T04:18:43.905Z,9.66
2022-12-25T04:19:43.929Z,9.67
2022-12-25T04:20:43.931Z,9.67
2022-12-25T04:21:43.895Z,9.69
2022-12-25T04:22:43.895Z,9.67
2022-12-25T04:23:43.870Z,9.69
2022-12-25T04:24:43.881Z,9.69
2022-12-25T04:25:43.859Z,9.70
2022-12-25T04:26:43.837Z,9.72
2022-12-25T04:27:43.843Z,9.73
2022-12-25T04:28:43.817Z,9.72
2022-12-25T04:29:43.833Z,9.73
2022-12-25T04:30:43.817Z,9.74
2022-12-25T04:31:43.826Z,9.74
2022-12-25T04:32:43.762Z,9.77
2022-12-25T04:33:43.752Z,9.74
2022-12-25T04:34:43.761Z,9.76
2022-12-25T04:35:43.752Z,9.76
2022-12-25T04:36:43.739Z,9.80
2022-12-25T04:37:43.724Z,9.81
2022-12-25T04:38:43.712Z,9.80
2022-12-25T04:39:43.773Z,9.82
2022-12-25T04:40:43.759Z,9.81
2022-12-25T04:41:43.672Z,9.82
2022-12-25T04:42:43.690Z,9.84
2022-12-25T04:43:43.674Z,9.84
2022-12-25T04:44:43.645Z,9.85
2022-12-25T04:45:43.623Z,9.87
2022-12-25T04:46:43.682Z,9.88
2022-12-25T04:47:43.603Z,9.88
2022-12-25T04:48:43.610Z,9.90
2022-12-25T04:49:43.594Z,9.88
2022-12-25T04:50:43.581Z,9.88
2022-12-25T04:51:43.562Z,9.90
2022-12-25T04:52:43.554Z,9.88
2022-12-25T04:53:43.552Z,9.92
2022-12-25T04:54:43.572Z,9.91
2022-12-25T04:55:43.528Z,9.92
2022-12-25T04:56:45.932Z,9.91
2022-12-25T04:57:43.502Z,9.92
2022-12-25T04:58:43.489Z,9.92
2022-12-25T04:59:43.500Z,9.92
2022-12-25T05:00:43.466Z,9.94
2022-12-25T05:01:43.599Z,9.94
2022-12-25T05:02:43.640Z,9.94
2022-12-25T05:03:43.540Z,9.92
2022-12-25T05:04:43.446Z,9.95
2022-12-25T05:05:43.427Z,9.95
2022-12-25T05:06:43.410Z,9.99
2022-12-25T05:07:43.419Z,9.99
2022-12-25T05:08:43.386Z,9.97
2022-12-25T05:09:43.505Z,9.97
2022-12-25T05:10:43.360Z,9.99
2022-12-25T05:11:43.385Z,9.99
2022-12-25T05:12:43.333Z,9.99
2022-12-25T05:13:43.330Z,9.97
2022-12-25T05:14:43.328Z,10.00
2022-12-25T05:15:43.323Z,10.00
2022-12-25T05:16:43.327Z,10.03
2022-12-25T05:17:43.313Z,10.02
2022-12-25T05:18:43.271Z,10.00
2022-12-25T05:19:43.279Z,10.02
2022-12-25T05:20:43.239Z,10.03
2022-12-25T05:21:43.261Z,10.03
2022-12-25T05:22:43.230Z,10.05
2022-12-25T05:23:43.240Z,10.03
2022-12-25T05:24:43.240Z,10.06
2022-12-25T05:25:43.192Z,10.05
2022-12-25T05:26:43.190Z,10.05
2022-12-25T05:27:46.531Z,10.07
2022-12-25T05:28:44.172Z,10.07
2022-12-25T05:29:43.159Z,10.06
2022-12-25T05:30:43.140Z,10.06
2022-12-25T05:31:43.217Z,10.10
2022-12-25T05:32:43.124Z,10.10
2022-12-25T05:33:43.115Z,10.10
2022-12-25T05:34:43.104Z,10.07
2022-12-25T05:35:43.095Z,10.09
2022-12-25T05:36:43.076Z,10.09
2022-12-25T05:37:43.059Z,10.09
2022-12-25T05:38:43.058Z,10.06
2022-12-25T05:39:43.039Z,10.07
2022-12-25T05:40:43.049Z,10.06
2022-12-25T05:41:43.017Z,10.05
2022-12-25T05:42:43.017Z,10.03
2022-12-25T05:43:43.004Z,10.05
2022-12-25T05:44:42.996Z,10.02
2022-12-25T05:45:42.986Z,10.02
2022-12-25T05:46:43.048Z,9.99
2022-12-25T05:47:42.963Z,10.00
2022-12-25T05:48:42.955Z,9.97
2022-12-25T05:49:42.987Z,9.97
2022-12-25T05:50:42.938Z,9.92
2022-12-25T05:51:42.919Z,9.91
2022-12-25T05:52:42.916Z,9.92
2022-12-25T05:53:42.897Z,9.87
2022-12-25T05:54:42.899Z,9.90
2022-12-25T05:55:42.887Z,9.87
2022-12-25T05:56:42.881Z,9.84
2022-12-25T05:57:42.854Z,9.84
2022-12-25T05:58:42.860Z,9.81
2022-12-25T05:59:42.847Z,9.81
2022-12-25T06:00:42.835Z,9.76
2022-12-25T06:01:42.937Z,9.74
2022-12-25T06:02:42.901Z,9.73
2022-12-25T06:03:42.879Z,9.70
2022-12-25T06:04:42.819Z,9.67
2022-12-25T06:05:42.784Z,9.66
2022-12-25T06:06:42.752Z,9.66
2022-12-25T06:07:42.750Z,9.64
2022-12-25T06:08:42.731Z,9.59
2022-12-25T06:09:42.745Z,9.58
2022-12-25T06:10:42.745Z,9.56
2022-12-25T06:11:42.712Z,9.55
2022-12-25T06:12:42.703Z,9.51
2022-12-25T06:13:42.676Z,9.51
2022-12-25T06:14:42.689Z,9.49
2022-12-25T06:15:42.799Z,9.48
2022-12-25T06:16:42.732Z,9.45
2022-12-25T06:17:42.633Z,9.44
2022-12-25T06:18:42.668Z,9.40
2022-12-25T06:19:42.613Z,9.39
2022-12-25T06:20:42.623Z,9.39
2022-12-25T06:21:42.605Z,9.36
2022-12-25T06:22:42.602Z,9.34
2022-12-25T06:23:42.725Z,9.36
2022-12-25T06:24:42.618Z,9.33
2022-12-25T06:25:42.573Z,9.33
2022-12-25T06:26:42.612Z,9.27
2022-12-25T06:27:42.543Z,9.29
2022-12-25T06:28:42.519Z,9.27
2022-12-25T06:29:42.503Z,9.27
2022-12-25T06:30:42.517Z,9.24
2022-12-25T06:31:42.578Z,9.24
2022-12-25T06:32:42.520Z,9.22
2022-12-25T06:33:42.484Z,9.22
2022-12-25T06:34:42.455Z,9.21
2022-12-25T06:35:42.440Z,9.19
2022-12-25T06:36:42.440Z,9.21
2022-12-25T06:37:42.438Z,9.18
2022-12-25T06:38:42.434Z,9.16
2022-12-25T06:39:42.400Z,9.19
2022-12-25T06:40:42.396Z,9.18
2022-12-25T06:41:42.382Z,9.16
2022-12-25T06:42:42.380Z,9.13
2022-12-25T06:43:42.351Z,9.15
2022-12-25T06:44:42.350Z,9.16
2022-12-25T06:45:42.372Z,9.13
2022-12-25T06:46:42.330Z,9.15
2022-12-25T06:47:42.314Z,9.11
2022-12-25T06:48:42.301Z,9.12
2022-12-25T06:49:42.293Z,9.12
2022-12-25T06:50:42.291Z,9.11
2022-12-25T06:51:42.269Z,9.08
2022-12-25T06:52:42.270Z,9.11
2022-12-25T06:53:42.190Z,9.09
2022-12-25T06:54:42.203Z,9.05
2022-12-25T06:55:42.169Z,9.08
2022-12-25T06:56:42.178Z,9.05
2022-12-25T06:57:42.169Z,9.05
2022-12-25T06:58:42.169Z,9.02
2022-12-25T06:59:42.195Z,9.08
2022-12-25T07:00:42.202Z,9.03
2022-12-25T07:01:42.312Z,9.00
2022-12-25T07:02:42.208Z,9.00
2022-12-25T07:03:42.087Z,9.00
2022-12-25T07:04:42.100Z,8.99
2022-12-25T07:05:42.059Z,8.99
2022-12-25T07:06:42.067Z,8.97
2022-12-25T07:07:42.051Z,8.97
2022-12-25T07:08:42.075Z,8.99
2022-12-25T07:09:42.020Z,8.97
2022-12-25T07:10:42.048Z,8.95
2022-12-25T07:11:42.008Z,8.93
2022-12-25T07:12:42.020Z,8.96
2022-12-25T07:13:41.992Z,8.95
2022-12-25T07:14:41.992Z,8.93
2022-12-25T07:15:42.037Z,8.93
2022-12-25T07:16:42.159Z,8.93
2022-12-25T07:17:41.944Z,8.92
2022-12-25T07:18:41.941Z,8.90
2022-12-25T07:19:45.151Z,8.92
2022-12-25T07:20:41.942Z,8.89
2022-12-25T07:21:41.920Z,8.90
2022-12-25T07:22:41.890Z,8.87
2022-12-25T07:23:41.920Z,8.89
2022-12-25T07:24:41.880Z,8.87
2022-12-25T07:25:41.856Z,8.86
2022-12-25T07:26:41.882Z,8.87
2022-12-25T07:27:41.837Z,8.87
2022-12-25T07:28:41.825Z,8.87
2022-12-25T07:29:41.819Z,8.87
2022-12-25T07:30:41.806Z,8.87
2022-12-25T07:31:41.878Z,8.87
2022-12-25T07:32:46.831Z,8.90
2022-12-25T07:33:42.789Z,8.89
2022-12-25T07:34:41.767Z,8.87
2022-12-25T07:35:41.746Z,8.89
2022-12-25T07:36:41.745Z,8.90
2022-12-25T07:37:41.726Z,8.90
2022-12-25T07:38:41.748Z,8.89
2022-12-25T07:39:41.716Z,8.92
2022-12-25T07:40:41.740Z,8.92
2022-12-25T07:41:41.694Z,8.92
2022-12-25T07:42:41.681Z,8.93
2022-12-25T07:43:41.674Z,8.93
2022-12-25T07:44:41.671Z,8.93
2022-12-25T07:45:41.734Z,8.93
2022-12-25T07:46:41.633Z,8.96
2022-12-25T07:47:41.623Z,8.96
2022-12-25T07:48:41.625Z,8.95
2022-12-25T07:49:41.595Z,8.95
2022-12-25T07:50:41.586Z,8.96
2022-12-25T07:51:41.602Z,8.96
2022-12-25T07:52:43.807Z,8.97
2022-12-25T07:53:41.556Z,8.97
2022-12-25T07:54:41.560Z,8.97
2022-12-25T07:55:41.533Z,8.97
2022-12-25T07:56:41.526Z,8.99
2022-12-25T07:57:41.534Z,9.00
2022-12-25T07:58:41.544Z,9.00
2022-12-25T07:59:41.506Z,9.02
2022-12-25T08:00:41.522Z,9.02
2022-12-25T08:01:41.644Z,9.02
2022-12-25T08:02:41.863Z,9.02
2022-12-25T08:03:41.625Z,9.02
2022-12-25T08:04:41.492Z,9.02
2022-12-25T08:05:41.426Z,9.03
2022-12-25T08:06:41.429Z,9.02
2022-12-25T08:07:41.415Z,9.08
2022-12-25T08:08:41.405Z,9.08
2022-12-25T08:09:41.373Z,9.08
2022-12-25T08:10:41.379Z,9.09
2022-12-25T08:11:41.358Z,9.12
2022-12-25T08:12:41.369Z,9.12
2022-12-25T08:13:41.336Z,9.13
2022-12-25T08:14:41.334Z,9.18
2022-12-25T08:15:41.312Z,9.21
2022-12-25T08:16:41.336Z,9.22
2022-12-25T08:17:41.303Z,9.24
2022-12-25T08:18:41.319Z,9.24
2022-12-25T08:19:41.283Z,9.29
2022-12-25T08:20:41.287Z,9.29
2022-12-25T08:21:41.263Z,9.31
2022-12-25T08:22:41.262Z,9.34
2022-12-25T08:23:41.278Z,9.36
2022-12-25T08:24:41.222Z,9.36
2022-12-25T08:25:41.239Z,9.40
2022-12-25T08:26:41.201Z,9.40
2022-12-25T08:27:41.213Z,9.44
2022-12-25T08:28:41.198Z,9.47
2022-12-25T08:29:41.178Z,9.48
2022-12-25T08:30:41.197Z,9.51
2022-12-25T08:31:46.129Z,9.55
2022-12-25T08:32:42.435Z,9.55
2022-12-25T08:33:41.121Z,9.55
2022-12-25T08:34:41.114Z,9.58
2022-12-25T08:35:41.113Z,9.59
2022-12-25T08:36:41.101Z,9.59
2022-12-25T08:37:41.135Z,9.59
2022-12-25T08:38:41.112Z,9.59
2022-12-25T08:39:41.069Z,9.59
2022-12-25T08:40:41.057Z,9.62
2022-12-25T08:41:41.040Z,9.58
2022-12-25T08:42:41.048Z,9.62
2022-12-25T08:43:41.016Z,9.62
2022-12-25T08:44:41.012Z,9.63
2022-12-25T08:45:41.093Z,9.59
2022-12-25T08:46:41.027Z,9.64
2022-12-25T08:47:40.989Z,9.62
2022-12-25T08:48:40.981Z,9.63
2022-12-25T08:49:40.951Z,9.63
2022-12-25T08:50:40.943Z,9.62
2022-12-25T08:51:40.929Z,9.63
2022-12-25T08:52:40.954Z,9.62
2022-12-25T08:53:40.947Z,9.63
2022-12-25T08:54:40.901Z,9.63
2022-12-25T08:55:40.901Z,9.64
2022-12-25T08:56:40.880Z,9.62
2022-12-25T08:57:40.889Z,9.64
2022-12-25T08:58:40.877Z,9.64
2022-12-25T08:59:40.857Z,9.64
2022-12-25T09:00:40.839Z,9.63
2022-12-25T09:01:40.955Z,9.63
2022-12-25T09:02:41.033Z,9.62
2022-12-25T09:03:40.874Z,9.64
2022-12-25T09:04:40.808Z,9.59
2022-12-25T09:05:40.818Z,9.63
2022-12-25T09:06:40.772Z,9.63
2022-12-25T09:07:40.770Z,9.66
2022-12-25T09:08:47.747Z,9.63
2022-12-25T09:09:41.740Z,9.66
2022-12-25T09:10:40.738Z,9.64
2022-12-25T09:11:40.729Z,9.66
2022-12-25T09:12:40.720Z,9.66
2022-12-25T09:13:40.712Z,9.67
2022-12-25T09:14:40.689Z,9.69
2022-12-25T09:15:40.692Z,9.67
2022-12-25T09:16:40.657Z,9.69
2022-12-25T09:17:40.677Z,9.72
2022-12-25T09:18:40.652Z,9.72
2022-12-25T09:19:40.673Z,9.74
2022-12-25T09:20:40.626Z,9.76
2022-12-25T09:21:40.608Z,9.74
2022-12-25T09:22:40.609Z,9.76
2022-12-25T09:23:40.606Z,9.81
2022-12-25T09:24:40.590Z,9.77
2022-12-25T09:25:40.651Z,9.82
2022-12-25T09:26:40.648Z,9.84
2022-12-25T09:27:40.621Z,9.85
2022-12-25T09:28:45.166Z,9.85
2022-12-25T09:29:41.546Z,9.88
2022-12-25T09:30:40.569Z,9.90
2022-12-25T09:31:40.506Z,9.90
2022-12-25T09:32:40.511Z,9.91
2022-12-25T09:33:40.499Z,9.91
2022-12-25T09:34:40.475Z,9.91
2022-12-25T09:35:40.466Z,9.92
2022-12-25T09:36:40.466Z,9.92
2022-12-25T09:37:40.635Z,9.92
2022-12-25T09:38:40.439Z,9.92
2022-12-25T09:39:46.058Z,9.95
2022-12-25T09:40:41.430Z,9.92
2022-12-25T09:41:40.398Z,9.94
2022-12-25T09:42:40.386Z,9.95
2022-12-25T09:43:40.391Z,9.97
2022-12-25T09:44:40.383Z,9.95
2022-12-25T09:45:40.386Z,9.95
2022-12-25T09:46:40.449Z,9.97
2022-12-25T09:47:40.330Z,9.95
2022-12-25T09:48:40.351Z,9.95
2022-12-25T09:49:40.331Z,10.00
2022-12-25T09:50:40.297Z,9.99
2022-12-25T09:51:40.293Z,9.99
2022-12-25T09:52:40.296Z,10.00
2022-12-25T09:53:40.287Z,10.03
2022-12-25T09:54:40.254Z,10.00
2022-12-25T09:55:40.245Z,10.02
2022-12-25T09:56:40.232Z,10.03
2022-12-25T09:57:40.225Z,10.05
2022-12-25T09:58:40.218Z,10.06
2022-12-25T09:59:40.224Z,10.07
2022-12-25T10:00:40.185Z,10.09
2022-12-25T10:01:40.299Z,10.13
2022-12-25T10:02:40.332Z,10.12
2022-12-25T10:03:40.296Z,10.13
2022-12-25T10:04:41.133Z,10.13
2022-12-25T10:05:40.141Z,10.13
2022-12-25T10:06:40.123Z,10.15
2022-12-25T10:07:40.139Z,10.15
2022-12-25T10:08:40.115Z,10.17
2022-12-25T10:09:40.103Z,10.21
2022-12-25T10:10:40.080Z,10.18
2022-12-25T10:11:40.093Z,10.23
2022-12-25T10:12:40.062Z,10.21
2022-12-25T10:13:40.070Z,10.24
2022-12-25T10:14:40.053Z,10.25
2022-12-25T10:15:45.215Z,10.25
2022-12-25T10:16:41.050Z,10.27
2022-12-25T10:17:40.025Z,10.30
2022-12-25T10:18:40.025Z,10.27
2022-12-25T10:19:40.001Z,10.30
2022-12-25T10:20:40.000Z,10.33
2022-12-25T10:21:39.974Z,10.34
2022-12-25T10:22:39.982Z,10.34
2022-12-25T10:23:39.933Z,10.34
2022-12-25T10:24:39.932Z,10.38
2022-12-25T10:25:39.927Z,10.39
2022-12-25T10:26:39.910Z,10.39
2022-12-25T10:27:39.895Z,10.43
2022-12-25T10:28:39.918Z,10.41
2022-12-25T10:29:39.915Z,10.42
2022-12-25T10:30:39.851Z,10.42
2022-12-25T10:31:39.916Z,10.45
2022-12-25T10:32:39.828Z,10.46
2022-12-25T10:33:39.832Z,10.51
2022-12-25T10:34:40.162Z,10.49
2022-12-25T10:35:39.839Z,10.51
2022-12-25T10:36:39.789Z,10.55
2022-12-25T10:37:39.797Z,10.55
2022-12-25T10:38:39.762Z,10.59
2022-12-25T10:39:45.979Z,10.61
2022-12-25T10:40:40.760Z,10.65
2022-12-25T10:41:39.735Z,10.67
2022-12-25T10:42:39.727Z,10.69
2022-12-25T10:43:39.711Z,10.72
2022-12-25T10:44:39.733Z,10.76
2022-12-25T10:45:39.683Z,10.79
2022-12-25T10:46:39.728Z,10.80
2022-12-25T10:47:41.456Z,10.87
2022-12-25T10:48:39.662Z,10.90
2022-12-25T10:49:39.690Z,10.95
2022-12-25T10:50:39.645Z,10.94
2022-12-25T10:51:39.640Z,10.98
2022-12-25T10:52:39.603Z,11.01
2022-12-25T10:53:39.616Z,11.01
2022-12-25T10:54:39.610Z,11.01
2022-12-25T10:55:39.569Z,11.07
2022-12-25T10:56:39.647Z,11.08
2022-12-25T10:57:39.550Z,11.08
2022-12-25T10:58:39.551Z,11.08
2022-12-25T10:59:39.540Z,11.12
2022-12-25T11:00:39.528Z,11.07
2022-12-25T11:01:39.558Z,11.08
2022-12-25T11:02:39.742Z,11.12
2022-12-25T11:03:39.557Z,11.13
2022-12-25T11:04:39.503Z,11.12
2022-12-25T11:05:39.460Z,11.10
2022-12-25T11:06:39.443Z,11.12
2022-12-25T11:07:39.492Z,11.13
2022-12-25T11:08:39.431Z,11.12
2022-12-25T11:09:39.451Z,11.15
2022-12-25T11:10:39.425Z,11.10
2022-12-25T11:11:39.424Z,11.13
2022-12-25T11:12:39.381Z,11.12
2022-12-25T11:13:39.372Z,11.12
2022-12-25T11:14:39.370Z,11.12
2022-12-25T11:15:39.502Z,11.13
2022-12-25T11:16:39.368Z,11.12
2022-12-25T11:17:39.328Z,11.15
2022-12-25T11:18:39.320Z,11.12
2022-12-25T11:19:39.308Z,11.12
2022-12-25T11:20:45.374Z,11.13
2022-12-25T11:21:40.288Z,11.13
2022-12-25T11:22:39.259Z,11.12
2022-12-25T11:23:39.262Z,11.13
2022-12-25T11:24:39.406Z,11.13
2022-12-25T11:25:39.246Z,11.13
2022-12-25T11:26:39.247Z,11.15
2022-12-25T11:27:39.231Z,11.16
2022-12-25T11:28:39.217Z,11.15
2022-12-25T11:29:39.216Z,11.18
2022-12-25T11:30:39.206Z,11.13
2022-12-25T11:31:39.271Z,11.15
2022-12-25T11:32:39.159Z,11.15
2022-12-25T11:33:39.145Z,11.15
2022-12-25T11:34:39.187Z,11.15
2022-12-25T11:35:39.252Z,11.18
2022-12-25T11:36:39.143Z,11.16
2022-12-25T11:37:39.121Z,11.18
2022-12-25T11:38:39.090Z,11.18
2022-12-25T11:39:39.085Z,11.18
2022-12-25T11:40:39.087Z,11.18
2022-12-25T11:41:39.055Z,11.18
2022-12-25T11:42:39.046Z,11.19
2022-12-25T11:43:39.045Z,11.20
2022-12-25T11:44:39.037Z,11.20
2022-12-25T11:45:39.050Z,11.19
2022-12-25T11:46:39.023Z,11.18
2022-12-25T11:47:38.993Z,11.22
2022-12-25T11:48:38.986Z,11.22
2022-12-25T11:49:39.038Z,11.20
2022-12-25T11:50:38.977Z,11.19
2022-12-25T11:51:39.976Z,11.22
2022-12-25T11:52:38.938Z,11.22
2022-12-25T11:53:38.928Z,11.22
2022-12-25T11:54:38.932Z,11.22
2022-12-25T11:55:38.920Z,11.25
2022-12-25T11:56:38.884Z,11.22
2022-12-25T11:57:39.048Z,11.22
2022-12-25T11:58:38.875Z,11.25
2022-12-25T11:59:38.868Z,11.22
2022-12-25T12:00:38.874Z,11.25
2022-12-25T12:01:38.966Z,11.26
2022-12-25T12:02:39.179Z,11.26
2022-12-25T12:03:38.955Z,11.26
2022-12-25T12:04:42.954Z,11.26
2022-12-25T12:05:38.813Z,11.26
2022-12-25T12:06:38.773Z,11.26
2022-12-25T12:07:38.787Z,11.27
2022-12-25T12:08:38.755Z,11.27
2022-12-25T12:09:38.753Z,11.27
2022-12-25T12:10:38.799Z,11.27
2022-12-25T12:11:38.767Z,11.27
2022-12-25T12:12:44.937Z,11.31
2022-12-25T12:13:39.768Z,11.30
2022-12-25T12:14:38.685Z,11.31
2022-12-25T12:15:38.741Z,11.33
2022-12-25T12:16:38.702Z,11.31
2022-12-25T12:17:38.676Z,11.34
2022-12-25T12:18:38.681Z,11.31
2022-12-25T12:19:38.695Z,11.31
2022-12-25T12:20:38.635Z,11.31
2022-12-25T12:21:38.619Z,11.31
2022-12-25T12:22:38.622Z,11.31
2022-12-25T12:23:38.595Z,11.33
2022-12-25T12:24:38.604Z,11.33
2022-12-25T12:25:38.600Z,11.35
2022-12-25T12:26:38.581Z,11.34
2022-12-25T12:27:38.580Z,11.34
2022-12-25T12:28:38.544Z,11.35
2022-12-25T12:29:38.551Z,11.40
2022-12-25T12:30:38.652Z,11.38
2022-12-25T12:31:38.541Z,11.40
2022-12-25T12:32:38.495Z,11.40
2022-12-25T12:33:38.495Z,11.41
2022-12-25T12:34:38.464Z,11.41
2022-12-25T12:35:38.474Z,11.44
2022-12-25T12:36:38.450Z,11.43
2022-12-25T12:37:38.450Z,11.44
2022-12-25T12:38:38.444Z,11.45
2022-12-25T12:39:38.471Z,11.44
2022-12-25T12:40:38.438Z,11.45
2022-12-25T12:41:38.401Z,11.48
2022-12-25T12:42:38.391Z,11.48
2022-12-25T12:43:38.426Z,11.45
2022-12-25T12:44:38.362Z,11.48
2022-12-25T12:45:38.478Z,11.48
2022-12-25T12:46:38.507Z,11.44
2022-12-25T12:47:38.344Z,11.45
2022-12-25T12:48:38.422Z,11.48
2022-12-25T12:49:38.317Z,11.45
2022-12-25T12:50:38.311Z,11.45
2022-12-25T12:51:38.290Z,11.44
2022-12-25T12:52:38.278Z,11.48
2022-12-25T12:53:38.302Z,11.48
2022-12-25T12:54:38.251Z,11.44
2022-12-25T12:55:38.260Z,11.44
2022-12-25T12:56:38.230Z,11.44
2022-12-25T12:57:38.212Z,11.44
2022-12-25T12:58:38.226Z,11.43
2022-12-25T12:59:38.204Z,11.44
2022-12-25T13:00:38.211Z,11.44
2022-12-25T13:01:38.259Z,11.45
2022-12-25T13:02:38.290Z,11.44
2022-12-25T13:03:38.203Z,11.48
2022-12-25T13:04:38.153Z,11.45
2022-12-25T13:05:38.130Z,11.45
2022-12-25T13:06:38.155Z,11.48
2022-12-25T13:07:38.122Z,11.48
2022-12-25T13:08:38.105Z,11.48
2022-12-25T13:09:38.090Z,11.48
2022-12-25T13:10:38.108Z,11.44